createdAt,value
2019-02-11T00:00:21.435Z,3.90
2019-02-11T00:00:56.756Z,3.40
2019-02-11T00:01:32.201Z,3.20
2019-02-11T00:02:07.658Z,3.90
2019-02-11T00:02:43.260Z,4.00
2019-02-11T00:03:18.720Z,4.60
2019-02-11T00:03:59.589Z,4.30
2019-02-11T00:04:29.278Z,3.90
2019-02-11T00:05:04.796Z,3.80
2019-02-11T00:05:40.223Z,3.50
2019-02-11T00:06:15.738Z,3.80
2019-02-11T00:06:51.284Z,4.20
2019-02-11T00:07:26.884Z,4.30
2019-02-11T00:08:02.133Z,3.90
2019-02-11T00:08:37.544Z,3.50
2019-02-11T00:09:12.784Z,4.10
2019-02-11T00:09:48.109Z,3.40
2019-02-11T00:10:23.646Z,3.40
2019-02-11T00:10:59.651Z,3.60
2019-02-11T00:11:34.291Z,4.00
2019-02-11T00:12:09.903Z,4.10
2019-02-11T00:12:45.155Z,3.70
2019-02-11T00:13:20.470Z,4.00
2019-02-11T00:13:56.013Z,4.20
2019-02-11T00:14:31.506Z,5.10
2019-02-11T00:15:06.830Z,4.60
2019-02-11T00:15:42.136Z,4.20
2019-02-11T00:16:17.878Z,4.50
2019-02-11T00:16:53.393Z,4.20
2019-02-11T00:17:28.927Z,3.80
2019-02-11T00:18:04.337Z,3.70
2019-02-11T00:18:39.870Z,4.00
2019-02-11T00:19:15.390Z,4.40
2019-02-11T00:19:50.823Z,4.90
2019-02-11T00:20:26.119Z,4.30
2019-02-11T00:21:01.561Z,4.30
2019-02-11T00:21:36.859Z,3.70
2019-02-11T00:22:12.179Z,4.20
2019-02-11T00:22:47.616Z,4.20
2019-02-11T00:23:25.050Z,4.40
2019-02-11T00:23:58.495Z,4.60
2019-02-11T00:24:33.851Z,4.60
2019-02-11T00:25:09.352Z,3.70
2019-02-11T00:25:44.414Z,3.90
2019-02-11T00:26:19.400Z,5.00
2019-02-11T00:26:54.725Z,5.10
2019-02-11T00:27:30.342Z,4.10
2019-02-11T00:28:05.669Z,4.00
2019-02-11T00:28:41.002Z,3.90
2019-02-11T00:29:16.356Z,3.80
2019-02-11T00:29:51.559Z,4.20
2019-02-11T00:30:26.892Z,4.90
2019-02-11T00:31:02.292Z,4.50
2019-02-11T00:31:37.552Z,4.50
2019-02-11T00:32:12.860Z,4.30
2019-02-11T00:32:48.456Z,4.80
2019-02-11T00:33:23.787Z,5.40
2019-02-11T00:33:59.423Z,5.00
2019-02-11T00:34:34.774Z,4.60
2019-02-11T00:35:10.199Z,4.60
2019-02-11T00:35:45.620Z,4.10
2019-02-11T00:36:20.964Z,4.10
2019-02-11T00:36:56.270Z,4.50
2019-02-11T00:37:31.510Z,4.50
2019-02-11T00:38:06.724Z,4.40
2019-02-11T00:38:42.238Z,3.90
2019-02-11T00:39:17.571Z,3.80
2019-02-11T00:39:52.694Z,4.10
2019-02-11T00:40:28.198Z,5.40
2019-02-11T00:41:03.644Z,5.10
2019-02-11T00:41:39.248Z,4.50
2019-02-11T00:42:14.882Z,3.60
2019-02-11T00:42:50.215Z,3.30
2019-02-11T00:43:25.856Z,3.20
2019-02-11T00:44:01.206Z,3.50
2019-02-11T00:44:36.439Z,3.60
2019-02-11T00:45:11.896Z,3.80
2019-02-11T00:45:47.432Z,4.20
2019-02-11T00:46:22.959Z,4.40
2019-02-11T00:46:58.279Z,5.10
2019-02-11T00:47:33.705Z,5.50
2019-02-11T00:48:09.014Z,4.20
2019-02-11T00:48:44.373Z,3.60
2019-02-11T00:49:19.907Z,4.20
2019-02-11T00:49:55.248Z,4.50
2019-02-11T00:50:30.542Z,3.60
2019-02-11T00:51:05.672Z,3.40
2019-02-11T00:51:41.074Z,3.50
2019-02-11T00:52:16.107Z,3.70
2019-02-11T00:52:51.306Z,3.80
2019-02-11T00:53:26.530Z,4.30
2019-02-11T00:54:02.274Z,4.80
2019-02-11T00:54:37.704Z,4.70
2019-02-11T00:55:13.008Z,4.50
2019-02-11T00:55:48.153Z,4.40
2019-02-11T00:56:23.542Z,3.90
2019-02-11T00:56:58.881Z,4.00
2019-02-11T00:57:34.270Z,4.10
2019-02-11T00:58:09.495Z,4.40
2019-02-11T00:58:45.013Z,4.50
2019-02-11T00:59:21.077Z,4.00
2019-02-11T00:59:55.773Z,4.00
2019-02-11T01:00:31.093Z,4.30
2019-02-11T01:01:06.421Z,3.70
2019-02-11T01:01:41.648Z,4.10
2019-02-11T01:02:17.055Z,4.70
2019-02-11T01:02:52.284Z,3.50
2019-02-11T01:03:27.796Z,4.20
2019-02-11T01:04:03.023Z,4.00
2019-02-11T01:04:38.392Z,3.60
2019-02-11T01:05:13.818Z,3.50
2019-02-11T01:05:49.025Z,4.20
2019-02-11T01:06:24.768Z,5.10
2019-02-11T01:06:59.892Z,3.90
2019-02-11T01:07:35.356Z,3.40
2019-02-11T01:08:10.594Z,3.80
2019-02-11T01:08:46.216Z,3.70
2019-02-11T01:09:21.751Z,3.70
2019-02-11T01:09:57.395Z,3.90
2019-02-11T01:10:32.921Z,3.90
2019-02-11T01:11:08.438Z,3.40
2019-02-11T01:11:43.840Z,3.60
2019-02-11T01:12:19.344Z,3.50
2019-02-11T01:12:54.483Z,3.50
2019-02-11T01:13:29.994Z,4.50
2019-02-11T01:14:05.417Z,4.10
2019-02-11T01:14:40.657Z,3.40
2019-02-11T01:15:16.093Z,3.10
2019-02-11T01:15:51.403Z,3.60
2019-02-11T01:16:27.150Z,3.30
2019-02-11T01:17:02.626Z,3.30
2019-02-11T01:17:38.049Z,3.30
2019-02-11T01:18:13.447Z,3.50
2019-02-11T01:18:48.887Z,3.30
2019-02-11T01:19:24.220Z,3.30
2019-02-11T01:19:59.342Z,3.70
2019-02-11T01:20:34.965Z,3.70
2019-02-11T01:21:10.568Z,3.90
2019-02-11T01:21:46.101Z,3.20
2019-02-11T01:22:21.424Z,3.40
2019-02-11T01:22:56.541Z,3.50
2019-02-11T01:23:31.881Z,3.20
2019-02-11T01:24:07.191Z,2.80
2019-02-11T01:24:42.354Z,3.70
2019-02-11T01:25:17.748Z,3.60
2019-02-11T01:25:53.172Z,3.20
2019-02-11T01:26:28.817Z,4.40
2019-02-11T01:27:04.133Z,4.10
2019-02-11T01:27:39.747Z,3.20
2019-02-11T01:28:15.060Z,3.00
2019-02-11T01:28:50.609Z,3.60
2019-02-11T01:29:26.217Z,3.90
2019-02-11T01:30:01.582Z,4.60
2019-02-11T01:30:36.903Z,3.60
2019-02-11T01:31:12.058Z,4.00
2019-02-11T01:31:47.460Z,4.10
2019-02-11T01:32:22.914Z,4.00
2019-02-11T01:32:58.321Z,4.40
2019-02-11T01:33:37.099Z,4.60
2019-02-11T01:34:12.503Z,5.20
2019-02-11T01:34:47.883Z,4.50
2019-02-11T01:35:23.196Z,3.60
2019-02-11T01:35:58.616Z,3.50
2019-02-11T01:36:34.010Z,3.90
2019-02-11T01:37:09.149Z,4.70
2019-02-11T01:37:44.646Z,4.80
2019-02-11T01:38:20.003Z,4.10
2019-02-11T01:38:55.194Z,4.10
2019-02-11T01:39:30.644Z,4.30
2019-02-11T01:40:05.889Z,5.60
2019-02-11T01:40:41.438Z,4.40
2019-02-11T01:41:16.551Z,3.50
2019-02-11T01:41:51.931Z,3.70
2019-02-11T01:42:27.178Z,3.60
2019-02-11T01:43:02.608Z,3.80
2019-02-11T01:43:38.072Z,4.20
2019-02-11T01:44:13.497Z,4.10
2019-02-11T01:44:48.808Z,4.30
2019-02-11T01:45:24.163Z,3.40
2019-02-11T01:45:59.368Z,3.30
2019-02-11T01:46:34.706Z,3.90
2019-02-11T01:47:09.926Z,4.20
2019-02-11T01:47:45.751Z,3.90
2019-02-11T01:48:21.359Z,3.80
2019-02-11T01:48:56.582Z,3.80
2019-02-11T01:49:31.959Z,3.80
2019-02-11T01:50:07.357Z,3.30
2019-02-11T01:50:42.655Z,3.30
2019-02-11T01:51:18.076Z,3.40
2019-02-11T01:51:53.482Z,3.60
2019-02-11T01:52:29.196Z,3.70
2019-02-11T01:53:04.590Z,3.10
2019-02-11T01:53:39.924Z,3.90
2019-02-11T01:54:15.263Z,4.00
2019-02-11T01:54:50.464Z,4.00
2019-02-11T01:55:25.802Z,4.50
2019-02-11T01:56:01.013Z,3.90
2019-02-11T01:56:38.179Z,4.00
2019-02-11T01:57:11.559Z,4.40
2019-02-11T01:57:47.004Z,3.90
2019-02-11T01:58:22.400Z,4.00
2019-02-11T01:58:57.641Z,4.00
2019-02-11T01:59:33.237Z,3.60
2019-02-11T02:00:08.766Z,3.60
2019-02-11T02:00:44.194Z,3.90
2019-02-11T02:01:19.716Z,4.10
2019-02-11T02:01:54.929Z,3.90
2019-02-11T02:02:30.537Z,4.10
2019-02-11T02:03:06.048Z,4.10
2019-02-11T02:03:41.670Z,3.70
2019-02-11T02:04:16.881Z,3.80
2019-02-11T02:04:52.461Z,3.10
2019-02-11T02:05:28.183Z,3.40
2019-02-11T02:06:03.521Z,3.80
2019-02-11T02:06:38.944Z,4.40
2019-02-11T02:07:14.304Z,3.80
2019-02-11T02:07:49.717Z,4.00
2019-02-11T02:08:25.159Z,4.10
2019-02-11T02:09:00.489Z,3.40
2019-02-11T02:09:35.802Z,3.70
2019-02-11T02:10:11.115Z,3.90
2019-02-11T02:10:46.685Z,4.20
2019-02-11T02:11:22.107Z,3.70
2019-02-11T02:11:57.550Z,3.20
2019-02-11T02:12:33.152Z,3.70
2019-02-11T02:13:08.589Z,3.50
2019-02-11T02:13:44.893Z,3.30
2019-02-11T02:14:19.403Z,3.70
2019-02-11T02:14:54.822Z,4.20
2019-02-11T02:15:29.974Z,4.00
2019-02-11T02:16:05.368Z,3.70
2019-02-11T02:16:40.799Z,3.50
2019-02-11T02:17:15.993Z,4.50
2019-02-11T02:17:51.222Z,5.10
2019-02-11T02:18:26.232Z,4.10
2019-02-11T02:19:01.547Z,3.60
2019-02-11T02:19:37.064Z,3.50
2019-02-11T02:20:12.581Z,3.20
2019-02-11T02:20:47.912Z,3.90
2019-02-11T02:21:23.359Z,3.80
2019-02-11T02:21:58.958Z,4.00
2019-02-11T02:22:34.294Z,3.60
2019-02-11T02:23:09.518Z,3.60
2019-02-11T02:23:44.919Z,3.50
2019-02-11T02:24:20.262Z,4.00
2019-02-11T02:24:55.597Z,4.40
2019-02-11T02:25:30.871Z,4.00
2019-02-11T02:26:06.400Z,4.10
2019-02-11T02:26:41.658Z,3.90
2019-02-11T02:27:16.847Z,3.50
2019-02-11T02:27:52.169Z,3.90
2019-02-11T02:28:27.660Z,4.30
2019-02-11T02:29:02.872Z,3.90
2019-02-11T02:29:38.472Z,3.50
2019-02-11T02:30:13.501Z,3.60
2019-02-11T02:30:48.809Z,4.10
2019-02-11T02:31:24.325Z,4.10
2019-02-11T02:31:59.576Z,4.10
2019-02-11T02:32:34.992Z,4.20
2019-02-11T02:33:10.368Z,4.10
2019-02-11T02:33:45.694Z,4.40
2019-02-11T02:34:21.408Z,4.40
2019-02-11T02:34:56.718Z,4.20
2019-02-11T02:35:31.973Z,4.80
2019-02-11T02:36:07.285Z,4.50
2019-02-11T02:36:42.608Z,4.40
2019-02-11T02:37:18.109Z,4.00
2019-02-11T02:37:53.639Z,3.90
2019-02-11T02:38:29.232Z,3.70
2019-02-11T02:39:04.872Z,3.90
2019-02-11T02:39:40.668Z,4.00
2019-02-11T02:40:16.014Z,4.90
2019-02-11T02:40:51.204Z,4.20
2019-02-11T02:41:26.824Z,4.10
2019-02-11T02:42:02.227Z,3.80
2019-02-11T02:42:37.737Z,3.60
2019-02-11T02:43:13.143Z,3.40
2019-02-11T02:43:55.088Z,3.90
2019-02-11T02:44:23.971Z,4.10
2019-02-11T02:44:59.313Z,3.70
2019-02-11T02:45:34.769Z,3.70
2019-02-11T02:46:10.501Z,4.30
2019-02-11T02:46:45.888Z,4.70
2019-02-11T02:47:21.431Z,4.10
2019-02-11T02:47:56.737Z,4.00
2019-02-11T02:48:32.188Z,3.90
2019-02-11T02:49:07.461Z,3.90
2019-02-11T02:49:42.988Z,3.50
2019-02-11T02:50:18.342Z,3.20
2019-02-11T02:50:53.450Z,4.30
2019-02-11T02:51:28.552Z,4.50
2019-02-11T02:52:03.799Z,3.80
2019-02-11T02:52:39.000Z,3.70
2019-02-11T02:53:14.106Z,4.10
2019-02-11T02:53:49.303Z,3.80
2019-02-11T02:54:24.543Z,3.90
2019-02-11T02:55:00.233Z,3.30
2019-02-11T02:55:35.698Z,3.30
2019-02-11T02:56:11.393Z,3.40
2019-02-11T02:56:46.832Z,3.60
2019-02-11T02:57:22.135Z,3.40
2019-02-11T02:57:57.361Z,3.50
2019-02-11T02:58:32.666Z,3.70
2019-02-11T02:59:07.865Z,4.50
2019-02-11T02:59:43.172Z,4.30
2019-02-11T03:00:18.306Z,3.80
2019-02-11T03:00:54.037Z,3.70
2019-02-11T03:01:29.545Z,4.00
2019-02-11T03:02:04.847Z,3.80
2019-02-11T03:02:40.081Z,4.10
2019-02-11T03:03:15.489Z,3.90
2019-02-11T03:03:50.903Z,3.20
2019-02-11T03:04:26.322Z,3.90
2019-02-11T03:05:01.770Z,4.70
2019-02-11T03:05:37.261Z,4.30
2019-02-11T03:06:12.579Z,4.20
2019-02-11T03:06:48.083Z,4.50
2019-02-11T03:07:23.398Z,4.40
2019-02-11T03:07:58.849Z,3.50
2019-02-11T03:08:34.152Z,3.40
2019-02-11T03:09:09.664Z,3.80
2019-02-11T03:09:45.075Z,3.80
2019-02-11T03:10:20.497Z,4.20
2019-02-11T03:10:56.220Z,4.50
2019-02-11T03:11:31.428Z,3.80
2019-02-11T03:12:06.543Z,3.70
2019-02-11T03:12:41.823Z,3.40
2019-02-11T03:13:17.225Z,3.10
2019-02-11T03:13:52.511Z,3.90
2019-02-11T03:14:28.107Z,4.30
2019-02-11T03:15:03.445Z,4.10
2019-02-11T03:15:38.669Z,3.60
2019-02-11T03:16:14.310Z,3.60
2019-02-11T03:16:49.595Z,3.80
2019-02-11T03:17:25.228Z,3.80
2019-02-11T03:18:00.832Z,2.90
2019-02-11T03:18:36.252Z,3.50
2019-02-11T03:19:11.363Z,4.00
2019-02-11T03:19:46.586Z,3.40
2019-02-11T03:20:21.577Z,4.20
2019-02-11T03:20:56.994Z,4.60
2019-02-11T03:21:32.287Z,4.20
2019-02-11T03:22:07.608Z,3.10
2019-02-11T03:22:42.912Z,2.90
2019-02-11T03:23:17.937Z,3.40
2019-02-11T03:23:53.224Z,3.30
2019-02-11T03:24:28.659Z,3.50
2019-02-11T03:25:03.933Z,3.20
2019-02-11T03:25:39.368Z,3.60
2019-02-11T03:26:14.602Z,4.40
2019-02-11T03:26:49.918Z,4.00
2019-02-11T03:27:25.230Z,3.30
2019-02-11T03:28:00.840Z,3.10
2019-02-11T03:28:36.128Z,3.50
2019-02-11T03:29:11.752Z,3.70
2019-02-11T03:29:47.070Z,3.40
2019-02-11T03:30:22.593Z,3.30
2019-02-11T03:30:57.788Z,3.70
2019-02-11T03:31:33.142Z,3.10
2019-02-11T03:32:08.706Z,3.80
2019-02-11T03:32:43.927Z,3.90
2019-02-11T03:33:19.333Z,3.40
2019-02-11T03:33:54.559Z,3.70
2019-02-11T03:34:30.267Z,3.50
2019-02-11T03:35:05.607Z,3.20
2019-02-11T03:35:41.017Z,3.20
2019-02-11T03:36:16.365Z,2.90
2019-02-11T03:36:51.564Z,2.70
2019-02-11T03:37:26.795Z,3.10
2019-02-11T03:38:02.185Z,3.70
2019-02-11T03:38:37.704Z,3.60
2019-02-11T03:39:13.209Z,3.10
2019-02-11T03:39:48.735Z,2.90
2019-02-11T03:40:24.019Z,3.30
2019-02-11T03:40:59.347Z,4.00
2019-02-11T03:41:34.670Z,3.40
2019-02-11T03:42:10.311Z,2.90
2019-02-11T03:42:45.598Z,3.10
2019-02-11T03:43:20.844Z,3.80
2019-02-11T03:43:57.547Z,3.80
2019-02-11T03:44:31.572Z,3.50
2019-02-11T03:45:07.103Z,3.80
2019-02-11T03:45:42.801Z,3.80
2019-02-11T03:46:18.057Z,3.20
2019-02-11T03:46:53.143Z,3.30
2019-02-11T03:47:28.380Z,3.50
2019-02-11T03:48:03.691Z,3.60
2019-02-11T03:48:38.911Z,3.30
2019-02-11T03:49:14.323Z,3.20
2019-02-11T03:49:49.548Z,3.20
2019-02-11T03:50:24.745Z,3.60
2019-02-11T03:50:59.959Z,3.80
2019-02-11T03:51:35.664Z,3.50
2019-02-11T03:52:11.197Z,3.50
2019-02-11T03:52:46.493Z,4.30
2019-02-11T03:53:21.722Z,4.20
2019-02-11T03:53:57.215Z,3.40
2019-02-11T03:54:32.547Z,4.00
2019-02-11T03:55:07.769Z,3.70
2019-02-11T03:55:43.297Z,3.50
2019-02-11T03:56:18.712Z,2.70
2019-02-11T03:56:53.937Z,2.90
2019-02-11T03:57:29.457Z,3.80
2019-02-11T03:58:04.887Z,3.70
2019-02-11T03:58:40.293Z,3.60
2019-02-11T03:59:15.906Z,3.60
2019-02-11T03:59:51.201Z,2.90
2019-02-11T04:00:26.731Z,3.40
2019-02-11T04:01:02.481Z,4.30
2019-02-11T04:01:37.719Z,3.80
2019-02-11T04:02:14.358Z,3.90
2019-02-11T04:02:48.559Z,3.30
2019-02-11T04:03:24.172Z,2.80
2019-02-11T04:03:59.566Z,3.20
2019-02-11T04:04:34.901Z,3.10
2019-02-11T04:05:10.502Z,3.30
2019-02-11T04:05:46.123Z,3.40
2019-02-11T04:06:21.738Z,3.40
2019-02-11T04:06:57.062Z,3.20
2019-02-11T04:07:32.784Z,3.30
2019-02-11T04:08:08.239Z,3.60
2019-02-11T04:08:43.431Z,3.40
2019-02-11T04:09:18.646Z,3.60
2019-02-11T04:09:53.741Z,3.80
2019-02-11T04:10:29.069Z,3.70
2019-02-11T04:11:04.187Z,3.70
2019-02-11T04:11:39.658Z,3.10
2019-02-11T04:12:15.157Z,3.10
2019-02-11T04:12:50.591Z,3.60
2019-02-11T04:13:25.683Z,3.70
2019-02-11T04:14:01.109Z,3.60
2019-02-11T04:14:36.398Z,3.60
2019-02-11T04:15:11.817Z,3.20
2019-02-11T04:15:47.124Z,3.00
2019-02-11T04:16:22.494Z,4.00
2019-02-11T04:16:57.586Z,4.50
2019-02-11T04:17:33.218Z,3.70
2019-02-11T04:18:08.423Z,3.80
2019-02-11T04:18:43.771Z,3.40
2019-02-11T04:19:19.059Z,2.90
2019-02-11T04:19:54.368Z,3.10
2019-02-11T04:20:29.646Z,3.80
2019-02-11T04:21:05.089Z,3.50
2019-02-11T04:21:40.203Z,3.50
2019-02-11T04:22:15.430Z,4.10
2019-02-11T04:22:50.510Z,3.50
2019-02-11T04:23:26.141Z,2.90
2019-02-11T04:24:01.539Z,3.30
2019-02-11T04:24:36.880Z,3.60
2019-02-11T04:25:12.293Z,4.50
2019-02-11T04:25:47.617Z,4.70
2019-02-11T04:26:22.945Z,3.60
2019-02-11T04:26:58.265Z,2.90
2019-02-11T04:27:33.675Z,2.80
2019-02-11T04:28:08.836Z,3.60
2019-02-11T04:28:43.867Z,4.30
2019-02-11T04:29:19.087Z,4.30
2019-02-11T04:29:54.287Z,4.00
2019-02-11T04:30:29.514Z,3.70
2019-02-11T04:31:04.722Z,3.60
2019-02-11T04:31:40.088Z,3.40
2019-02-11T04:32:15.782Z,3.50
2019-02-11T04:32:51.096Z,4.00
2019-02-11T04:33:26.401Z,3.90
2019-02-11T04:34:01.605Z,2.80
2019-02-11T04:34:37.104Z,3.00
2019-02-11T04:35:12.337Z,3.40
2019-02-11T04:35:47.630Z,3.70
2019-02-11T04:36:23.070Z,3.10
2019-02-11T04:36:58.259Z,2.90
2019-02-11T04:37:33.687Z,3.30
2019-02-11T04:38:09.214Z,3.40
2019-02-11T04:38:44.451Z,3.20
2019-02-11T04:39:20.049Z,3.50
2019-02-11T04:39:55.376Z,3.40
2019-02-11T04:40:30.364Z,3.50
2019-02-11T04:41:06.083Z,3.00
2019-02-11T04:41:41.410Z,2.90
2019-02-11T04:42:17.040Z,2.50
2019-02-11T04:42:52.648Z,3.10
2019-02-11T04:43:28.159Z,3.40
2019-02-11T04:44:03.483Z,3.50
2019-02-11T04:44:38.876Z,3.40
2019-02-11T04:45:14.414Z,3.40
2019-02-11T04:45:50.112Z,3.00
2019-02-11T04:46:25.553Z,3.60
2019-02-11T04:47:01.048Z,3.70
2019-02-11T04:47:36.489Z,3.40
2019-02-11T04:48:11.559Z,3.70
2019-02-11T04:48:47.187Z,3.90
2019-02-11T04:49:26.178Z,3.20
2019-02-11T04:50:01.797Z,3.00
2019-02-11T04:50:37.095Z,3.10
2019-02-11T04:51:12.412Z,3.60
2019-02-11T04:51:47.844Z,3.40
2019-02-11T04:52:23.172Z,2.90
2019-02-11T04:52:58.459Z,3.40
2019-02-11T04:53:33.993Z,3.30
2019-02-11T04:54:09.398Z,2.90
2019-02-11T04:54:44.718Z,3.10
2019-02-11T04:55:20.212Z,3.50
2019-02-11T04:55:55.342Z,4.20
2019-02-11T04:56:30.866Z,3.50
2019-02-11T04:57:06.210Z,3.70
2019-02-11T04:57:41.655Z,3.10
2019-02-11T04:58:17.162Z,3.20
2019-02-11T04:58:52.388Z,3.70
2019-02-11T04:59:27.880Z,3.90
2019-02-11T05:00:03.307Z,3.40
2019-02-11T05:00:38.598Z,3.10
2019-02-11T05:01:13.866Z,4.40
2019-02-11T05:01:49.257Z,4.20
2019-02-11T05:02:24.599Z,3.70
2019-02-11T05:02:59.796Z,3.80
2019-02-11T05:03:34.930Z,5.10
2019-02-11T05:04:10.330Z,5.10
2019-02-11T05:04:45.662Z,3.40
2019-02-11T05:05:21.047Z,3.10
2019-02-11T05:05:56.578Z,4.10
2019-02-11T05:06:31.865Z,4.60
2019-02-11T05:07:07.378Z,3.90
2019-02-11T05:07:42.611Z,3.40
2019-02-11T05:08:18.166Z,3.50
2019-02-11T05:08:53.761Z,3.70
2019-02-11T05:09:28.999Z,4.10
2019-02-11T05:10:04.483Z,4.30
2019-02-11T05:10:40.004Z,4.20
2019-02-11T05:11:15.405Z,3.50
2019-02-11T05:11:50.830Z,3.90
2019-02-11T05:12:26.066Z,4.60
2019-02-11T05:13:01.407Z,4.10
2019-02-11T05:13:36.690Z,3.70
2019-02-11T05:14:12.145Z,3.50
2019-02-11T05:14:47.337Z,4.10
2019-02-11T05:15:22.553Z,3.90
2019-02-11T05:15:57.957Z,3.50
2019-02-11T05:16:33.696Z,4.20
2019-02-11T05:17:09.193Z,4.00
2019-02-11T05:17:44.728Z,3.90
2019-02-11T05:18:20.035Z,3.60
2019-02-11T05:18:55.659Z,4.10
2019-02-11T05:19:31.266Z,4.60
2019-02-11T05:20:06.788Z,4.00
2019-02-11T05:20:42.090Z,3.70
2019-02-11T05:21:17.621Z,3.30
2019-02-11T05:21:53.048Z,3.20
2019-02-11T05:22:28.374Z,3.80
2019-02-11T05:23:03.803Z,3.50
2019-02-11T05:23:39.301Z,3.20
2019-02-11T05:24:14.769Z,3.00
2019-02-11T05:24:50.195Z,3.40
2019-02-11T05:25:25.591Z,4.10
2019-02-11T05:26:01.030Z,4.10
2019-02-11T05:26:36.418Z,4.00
2019-02-11T05:27:11.751Z,3.90
2019-02-11T05:27:47.170Z,3.70
2019-02-11T05:28:22.472Z,4.10
2019-02-11T05:28:57.802Z,4.20
2019-02-11T05:29:33.524Z,4.20
2019-02-11T05:30:09.161Z,3.80
2019-02-11T05:30:44.198Z,4.40
2019-02-11T05:31:19.803Z,4.20
2019-02-11T05:31:55.216Z,3.40
2019-02-11T05:32:30.916Z,3.10
2019-02-11T05:33:06.347Z,3.10
2019-02-11T05:33:41.894Z,3.20
2019-02-11T05:34:17.317Z,3.30
2019-02-11T05:34:52.863Z,4.20
2019-02-11T05:35:28.069Z,4.60
2019-02-11T05:36:03.306Z,4.00
2019-02-11T05:36:39.009Z,4.00
2019-02-11T05:37:14.645Z,3.80
2019-02-11T05:37:49.991Z,4.00
2019-02-11T05:38:25.377Z,3.70
2019-02-11T05:39:01.005Z,3.70
2019-02-11T05:39:36.107Z,4.10
2019-02-11T05:40:11.762Z,3.80
2019-02-11T05:40:47.103Z,4.50
2019-02-11T05:41:22.489Z,4.00
2019-02-11T05:41:57.924Z,4.30
2019-02-11T05:42:33.323Z,4.60
2019-02-11T05:43:09.158Z,3.90
2019-02-11T05:43:44.493Z,4.00
2019-02-11T05:44:19.871Z,4.00
2019-02-11T05:44:55.392Z,4.00
2019-02-11T05:45:30.718Z,4.00
2019-02-11T05:46:06.036Z,3.70
2019-02-11T05:46:41.242Z,3.00
2019-02-11T05:47:16.589Z,4.10
2019-02-11T05:47:52.094Z,3.80
2019-02-11T05:48:27.281Z,3.80
2019-02-11T05:49:02.884Z,3.70
2019-02-11T05:49:38.107Z,4.30
2019-02-11T05:50:13.445Z,4.20
2019-02-11T05:50:48.706Z,3.70
2019-02-11T05:51:24.535Z,4.50
2019-02-11T05:51:59.873Z,4.30
2019-02-11T05:52:35.268Z,3.70
2019-02-11T05:53:10.518Z,3.70
2019-02-11T05:53:46.137Z,3.30
2019-02-11T05:54:21.246Z,3.70
2019-02-11T05:54:56.751Z,4.10
2019-02-11T05:55:31.993Z,4.10
2019-02-11T05:56:07.129Z,4.00
2019-02-11T05:56:42.225Z,3.70
2019-02-11T05:57:17.551Z,3.70
2019-02-11T05:57:52.766Z,3.80
2019-02-11T05:58:28.182Z,3.70
2019-02-11T05:59:03.606Z,3.60
2019-02-11T05:59:39.212Z,3.90
2019-02-11T06:00:14.728Z,3.30
2019-02-11T06:00:50.048Z,3.40
2019-02-11T06:01:25.365Z,3.80
2019-02-11T06:02:00.696Z,4.00
2019-02-11T06:02:36.339Z,4.30
2019-02-11T06:03:11.650Z,3.70
2019-02-11T06:03:46.993Z,3.90
2019-02-11T06:04:22.391Z,3.80
2019-02-11T06:04:57.930Z,4.00
2019-02-11T06:05:33.669Z,3.60
2019-02-11T06:06:08.876Z,3.90
2019-02-11T06:06:44.418Z,3.70
2019-02-11T06:07:19.708Z,4.10
2019-02-11T06:07:55.017Z,3.90
2019-02-11T06:08:30.429Z,3.50
2019-02-11T06:09:05.534Z,3.50
2019-02-11T06:09:40.641Z,4.00
2019-02-11T06:10:15.961Z,4.20
2019-02-11T06:10:51.184Z,3.80
2019-02-11T06:11:26.797Z,3.30
2019-02-11T06:12:02.140Z,4.00
2019-02-11T06:12:37.635Z,4.70
2019-02-11T06:13:12.862Z,4.60
2019-02-11T06:13:48.369Z,4.70
2019-02-11T06:14:24.088Z,3.60
2019-02-11T06:15:04.242Z,3.30
2019-02-11T06:15:34.870Z,3.80
2019-02-11T06:16:09.973Z,3.60
2019-02-11T06:16:45.215Z,4.10
2019-02-11T06:17:20.620Z,3.90
2019-02-11T06:17:55.853Z,3.80
2019-02-11T06:18:30.844Z,4.40
2019-02-11T06:19:06.273Z,3.40
2019-02-11T06:19:41.874Z,3.70
2019-02-11T06:20:16.902Z,4.20
2019-02-11T06:20:52.545Z,3.70
2019-02-11T06:21:27.771Z,3.50
2019-02-11T06:22:03.414Z,4.00
2019-02-11T06:22:38.715Z,3.80
2019-02-11T06:23:14.149Z,4.00
2019-02-11T06:23:49.651Z,3.70
2019-02-11T06:24:25.386Z,4.20
2019-02-11T06:25:00.774Z,5.10
2019-02-11T06:25:36.003Z,4.50
2019-02-11T06:26:11.215Z,4.00
2019-02-11T06:26:46.575Z,3.80
2019-02-11T06:27:22.181Z,3.90
2019-02-11T06:27:57.401Z,4.40
2019-02-11T06:28:33.018Z,4.30
2019-02-11T06:29:08.481Z,3.90
2019-02-11T06:29:43.699Z,3.40
2019-02-11T06:30:19.016Z,3.40
2019-02-11T06:30:54.541Z,3.40
2019-02-11T06:31:29.789Z,3.50
2019-02-11T06:32:05.003Z,3.30
2019-02-11T06:32:40.112Z,3.20
2019-02-11T06:33:15.515Z,3.60
2019-02-11T06:33:50.828Z,3.70
2019-02-11T06:34:25.958Z,3.50
2019-02-11T06:35:01.352Z,3.60
2019-02-11T06:35:36.543Z,3.80
2019-02-11T06:36:12.812Z,3.20
2019-02-11T06:36:47.300Z,3.50
2019-02-11T06:37:22.675Z,4.60
2019-02-11T06:37:57.973Z,4.10
2019-02-11T06:38:33.404Z,3.50
2019-02-11T06:39:08.805Z,3.50
2019-02-11T06:39:44.240Z,3.60
2019-02-11T06:40:19.875Z,3.10
2019-02-11T06:40:55.295Z,3.20
2019-02-11T06:41:30.660Z,3.50
2019-02-11T06:42:06.079Z,3.70
2019-02-11T06:42:41.418Z,3.40
2019-02-11T06:43:16.947Z,3.00
2019-02-11T06:43:52.146Z,3.50
2019-02-11T06:44:27.460Z,4.30
2019-02-11T06:45:02.957Z,4.90
2019-02-11T06:45:38.290Z,3.50
2019-02-11T06:46:14.230Z,2.90
2019-02-11T06:46:49.660Z,2.70
2019-02-11T06:47:24.948Z,3.30
2019-02-11T06:48:00.302Z,3.60
2019-02-11T06:48:36.035Z,4.10
2019-02-11T06:49:11.363Z,3.80
2019-02-11T06:49:46.755Z,3.60
2019-02-11T06:50:22.296Z,4.00
2019-02-11T06:50:57.593Z,3.10
2019-02-11T06:51:32.884Z,3.20
2019-02-11T06:52:07.986Z,3.30
2019-02-11T06:52:43.632Z,4.00
2019-02-11T06:53:19.232Z,4.50
2019-02-11T06:53:54.357Z,4.10
2019-02-11T06:54:29.832Z,3.60
2019-02-11T06:55:05.169Z,3.40
2019-02-11T06:55:40.306Z,3.70
2019-02-11T06:56:15.501Z,4.50
2019-02-11T06:56:50.898Z,5.20
2019-02-11T06:57:26.111Z,4.40
2019-02-11T06:58:01.655Z,4.10
2019-02-11T06:58:36.866Z,3.30
2019-02-11T06:59:12.182Z,3.00
2019-02-11T06:59:47.399Z,3.80
2019-02-11T07:00:22.703Z,4.10
2019-02-11T07:00:58.028Z,3.90
2019-02-11T07:01:33.147Z,4.00
2019-02-11T07:02:08.562Z,3.80
2019-02-11T07:02:43.909Z,4.10
2019-02-11T07:03:19.234Z,4.30
2019-02-11T07:03:54.363Z,3.80
2019-02-11T07:04:29.804Z,3.50
2019-02-11T07:05:05.253Z,4.00
2019-02-11T07:05:40.758Z,4.10
2019-02-11T07:06:16.117Z,4.50
2019-02-11T07:06:51.441Z,4.40
2019-02-11T07:07:27.148Z,3.90
2019-02-11T07:08:02.572Z,4.00
2019-02-11T07:08:37.908Z,3.90
2019-02-11T07:09:12.933Z,3.90
2019-02-11T07:09:48.247Z,3.70
2019-02-11T07:10:23.554Z,4.10
2019-02-11T07:10:59.075Z,4.20
2019-02-11T07:11:34.375Z,3.90
2019-02-11T07:12:09.593Z,3.80
2019-02-11T07:12:45.023Z,3.80
2019-02-11T07:13:20.648Z,3.60
2019-02-11T07:13:55.665Z,3.50
2019-02-11T07:14:30.860Z,3.70
2019-02-11T07:15:05.987Z,3.70
2019-02-11T07:15:41.779Z,4.30
2019-02-11T07:16:17.012Z,4.70
2019-02-11T07:16:52.343Z,4.30
2019-02-11T07:17:27.524Z,3.90
2019-02-11T07:18:02.748Z,3.60
2019-02-11T07:18:38.265Z,3.50
2019-02-11T07:19:13.939Z,4.00
2019-02-11T07:19:49.066Z,5.10
2019-02-11T07:20:24.649Z,5.00
2019-02-11T07:21:00.187Z,4.60
2019-02-11T07:21:35.475Z,4.20
2019-02-11T07:22:10.796Z,3.60
2019-02-11T07:22:45.917Z,3.70
2019-02-11T07:23:21.148Z,4.80
2019-02-11T07:23:56.777Z,4.80
2019-02-11T07:24:32.086Z,4.60
2019-02-11T07:25:07.508Z,4.30
2019-02-11T07:25:43.003Z,4.70
2019-02-11T07:26:18.537Z,5.30
2019-02-11T07:26:53.959Z,5.70
2019-02-11T07:27:29.365Z,5.40
2019-02-11T07:28:04.509Z,4.50
2019-02-11T07:28:39.842Z,4.40
2019-02-11T07:29:15.370Z,3.90
2019-02-11T07:29:50.702Z,3.80
2019-02-11T07:30:25.895Z,4.50
2019-02-11T07:31:01.130Z,4.40
2019-02-11T07:31:36.531Z,4.90
2019-02-11T07:32:11.971Z,6.00
2019-02-11T07:32:47.396Z,4.90
2019-02-11T07:33:22.830Z,4.70
2019-02-11T07:33:58.355Z,4.10
2019-02-11T07:34:33.893Z,4.60
2019-02-11T07:35:09.111Z,5.00
2019-02-11T07:35:44.720Z,4.90
2019-02-11T07:36:20.233Z,4.60
2019-02-11T07:36:55.544Z,4.20
2019-02-11T07:37:30.861Z,4.20
2019-02-11T07:38:06.392Z,4.90
2019-02-11T07:38:41.815Z,4.90
2019-02-11T07:39:17.065Z,5.10
2019-02-11T07:39:52.612Z,5.50
2019-02-11T07:40:28.018Z,4.60
2019-02-11T07:41:03.455Z,4.80
2019-02-11T07:41:38.767Z,5.20
2019-02-11T07:42:14.204Z,5.40
2019-02-11T07:42:49.623Z,4.60
2019-02-11T07:43:25.060Z,4.30
2019-02-11T07:44:00.467Z,4.70
2019-02-11T07:44:35.682Z,4.80
2019-02-11T07:45:11.225Z,4.90
2019-02-11T07:45:46.362Z,4.20
2019-02-11T07:46:21.759Z,4.70
2019-02-11T07:46:57.500Z,4.60
2019-02-11T07:47:32.802Z,4.80
2019-02-11T07:48:08.335Z,4.90
2019-02-11T07:48:43.610Z,5.50
2019-02-11T07:49:19.111Z,4.70
2019-02-11T07:49:54.827Z,4.80
2019-02-11T07:50:29.815Z,4.90
2019-02-11T07:51:05.232Z,4.70